createdAt,value
2018-11-28T00:01:34.138Z,21.20
2018-11-28T00:04:00.564Z,21.30
2018-11-28T00:06:26.989Z,21.30
2018-11-28T00:08:53.437Z,21.30
2018-11-28T00:11:19.842Z,21.30
2018-11-28T00:13:46.281Z,21.20
2018-11-28T00:16:12.759Z,21.20
2018-11-28T00:18:39.183Z,21.10
2018-11-28T00:21:05.587Z,21.20
2018-11-28T00:23:32.011Z,21.10
2018-11-28T00:25:58.892Z,21.10
2018-11-28T00:28:24.942Z,21.00
2018-11-28T00:30:51.388Z,21.00
2018-11-28T00:33:17.844Z,21.00
2018-11-28T00:35:44.283Z,21.00
2018-11-28T00:38:10.733Z,21.00
2018-11-28T00:40:37.151Z,21.00
2018-11-28T00:43:03.586Z,21.00
2018-11-28T00:45:30.083Z,20.90
2018-11-28T00:47:56.500Z,20.90
2018-11-28T00:50:22.954Z,20.90
2018-11-28T00:52:49.439Z,20.90
2018-11-28T00:55:16.181Z,20.90
2018-11-28T00:57:42.721Z,20.90
2018-11-28T01:00:12.041Z,20.90
2018-11-28T01:02:38.514Z,20.90
2018-11-28T01:05:04.997Z,20.90
2018-11-28T01:07:31.430Z,20.90
2018-11-28T01:09:57.851Z,20.90
2018-11-28T01:12:24.290Z,20.90
2018-11-28T01:14:50.734Z,20.90
2018-11-28T01:17:17.182Z,20.90
2018-11-28T01:19:43.584Z,20.90
2018-11-28T01:22:10.018Z,20.90
2018-11-28T01:24:36.454Z,20.90
2018-11-28T01:27:02.883Z,20.90
2018-11-28T01:29:29.336Z,20.90
2018-11-28T01:31:55.794Z,20.80
2018-11-28T01:34:22.246Z,20.80
2018-11-28T01:36:48.730Z,20.80
2018-11-28T01:39:15.183Z,20.80
2018-11-28T01:41:41.611Z,20.90
2018-11-28T01:44:08.015Z,20.90
2018-11-28T01:46:34.519Z,20.90
2018-11-28T01:49:01.024Z,21.00
2018-11-28T01:51:27.480Z,21.00
2018-11-28T01:53:53.916Z,21.10
2018-11-28T01:56:20.347Z,21.10
2018-11-28T01:58:46.812Z,21.10
2018-11-28T02:01:13.267Z,21.10
2018-11-28T02:03:39.719Z,21.10
2018-11-28T02:06:06.162Z,21.00
2018-11-28T02:08:32.570Z,21.00
2018-11-28T02:10:59.034Z,21.00
2018-11-28T02:13:25.532Z,20.90
2018-11-28T02:15:51.957Z,20.90
2018-11-28T02:18:18.384Z,20.90
2018-11-28T02:20:44.796Z,20.80
2018-11-28T02:23:11.242Z,20.90
2018-11-28T02:25:37.742Z,21.70
2018-11-28T02:28:04.158Z,20.90
2018-11-28T02:30:30.559Z,20.80
2018-11-28T02:32:56.978Z,20.80
2018-11-28T02:35:23.399Z,20.80
2018-11-28T02:37:49.900Z,20.80
2018-11-28T02:40:16.354Z,20.80
2018-11-28T02:42:42.816Z,20.80
2018-11-28T02:45:09.315Z,20.80
2018-11-28T02:47:35.836Z,20.80
2018-11-28T02:50:02.276Z,20.80
2018-11-28T02:52:28.804Z,20.80
2018-11-28T02:54:55.245Z,20.80
2018-11-28T02:57:21.706Z,20.80
2018-11-28T02:59:48.170Z,20.80
2018-11-28T03:02:14.735Z,20.80
2018-11-28T03:04:41.252Z,20.80
2018-11-28T03:07:07.663Z,20.90
2018-11-28T03:09:34.130Z,20.90
2018-11-28T03:12:00.563Z,21.00
2018-11-28T03:14:27.017Z,21.00
2018-11-28T03:16:53.420Z,21.00
2018-11-28T03:19:19.871Z,21.10
2018-11-28T03:21:46.301Z,21.10
2018-11-28T03:24:12.748Z,21.10
2018-11-28T03:26:39.149Z,21.10
2018-11-28T03:29:05.627Z,21.00
2018-11-28T03:31:32.078Z,21.00
2018-11-28T03:33:58.546Z,21.00
2018-11-28T03:36:24.966Z,21.00
2018-11-28T03:38:51.416Z,20.90
2018-11-28T03:41:17.856Z,20.90
2018-11-28T03:43:44.300Z,20.80
2018-11-28T03:46:10.724Z,20.80
2018-11-28T03:48:37.155Z,20.80
2018-11-28T03:51:03.580Z,20.80
2018-11-28T03:53:30.046Z,20.90
2018-11-28T03:55:56.548Z,20.80
2018-11-28T03:58:22.989Z,20.90
2018-11-28T04:00:49.431Z,20.90
2018-11-28T04:03:15.912Z,21.00
2018-11-28T04:05:42.755Z,21.00
2018-11-28T04:08:09.230Z,21.00
2018-11-28T04:10:35.705Z,21.10
2018-11-28T04:13:02.117Z,21.10
2018-11-28T04:15:28.524Z,21.10
2018-11-28T04:17:54.954Z,21.10
2018-11-28T04:20:21.368Z,21.00
2018-11-28T04:22:47.803Z,21.00
2018-11-28T04:25:14.356Z,21.00
2018-11-28T04:27:40.854Z,21.00
2018-11-28T04:30:07.290Z,20.90
2018-11-28T04:32:33.825Z,20.90
2018-11-28T04:35:00.284Z,20.90
2018-11-28T04:37:26.719Z,20.80
2018-11-28T04:39:53.209Z,20.80
2018-11-28T04:42:19.660Z,20.80
2018-11-28T04:44:46.119Z,20.80
2018-11-28T04:47:12.550Z,20.80
2018-11-28T04:49:38.986Z,20.80
2018-11-28T04:52:05.461Z,20.80
2018-11-28T04:54:31.883Z,20.80
2018-11-28T04:56:58.351Z,20.80
2018-11-28T04:59:24.780Z,20.80
2018-11-28T05:01:51.227Z,20.80
2018-11-28T05:04:17.766Z,20.80
2018-11-28T05:06:44.165Z,20.80
2018-11-28T05:09:10.635Z,20.80
2018-11-28T05:11:37.063Z,20.80
2018-11-28T05:14:03.515Z,20.90
2018-11-28T05:16:30.011Z,20.90
2018-11-28T05:18:56.420Z,20.90
2018-11-28T05:21:22.871Z,21.00
2018-11-28T05:23:49.304Z,21.00
2018-11-28T05:26:15.731Z,21.00
2018-11-28T05:28:42.193Z,21.10
2018-11-28T05:31:08.640Z,21.10
2018-11-28T05:33:35.086Z,21.10
2018-11-28T05:36:01.512Z,21.00
2018-11-28T05:38:27.959Z,21.00
2018-11-28T05:40:54.407Z,21.00
2018-11-28T05:43:20.821Z,21.00
2018-11-28T05:45:47.256Z,21.00
2018-11-28T05:48:15.142Z,21.00
2018-11-28T05:50:40.219Z,21.10
2018-11-28T05:53:06.656Z,21.10
2018-11-28T05:55:33.338Z,21.10
2018-11-28T05:57:59.782Z,21.20
2018-11-28T06:00:27.419Z,21.20
2018-11-28T06:02:53.887Z,21.20
2018-11-28T06:05:20.339Z,21.20
2018-11-28T06:07:46.829Z,21.20
2018-11-28T06:10:13.247Z,21.20
2018-11-28T06:12:39.658Z,21.20
2018-11-28T06:15:06.133Z,21.20
2018-11-28T06:17:32.532Z,21.20
2018-11-28T06:19:58.982Z,21.20
2018-11-28T06:22:25.427Z,21.10
2018-11-28T06:24:51.912Z,21.10
2018-11-28T06:27:18.352Z,21.10
2018-11-28T06:29:44.772Z,21.10
2018-11-28T06:32:11.211Z,21.10
2018-11-28T06:34:37.653Z,21.10
2018-11-28T06:37:04.071Z,21.20
2018-11-28T06:39:30.507Z,21.10
2018-11-28T06:41:56.919Z,21.20
2018-11-28T06:44:23.373Z,21.10
2018-11-28T06:46:49.810Z,21.10
2018-11-28T06:49:16.265Z,21.10
2018-11-28T06:51:42.738Z,21.10
2018-11-28T06:54:09.131Z,21.10
2018-11-28T06:56:35.561Z,21.10
2018-11-28T06:59:02.006Z,21.10
2018-11-28T07:01:28.423Z,21.10
2018-11-28T07:03:54.852Z,21.10
2018-11-28T07:06:21.287Z,21.10
2018-11-28T07:08:47.713Z,21.10
2018-11-28T07:11:14.276Z,21.10
2018-11-28T07:13:40.703Z,21.00
2018-11-28T07:16:07.160Z,21.00
2018-11-28T07:18:33.644Z,21.00
2018-11-28T07:21:00.080Z,21.00
2018-11-28T07:23:26.538Z,21.00
2018-11-28T07:25:52.987Z,21.00
2018-11-28T07:28:19.448Z,21.00
2018-11-28T07:30:45.876Z,21.00
2018-11-28T07:33:12.338Z,21.00
2018-11-28T07:35:39.760Z,21.00
2018-11-28T07:38:06.214Z,21.00
2018-11-28T07:40:32.636Z,20.90
2018-11-28T07:42:59.081Z,20.90
2018-11-28T07:45:25.558Z,20.90
2018-11-28T07:47:52.004Z,20.90
2018-11-28T07:50:18.438Z,20.90
2018-11-28T07:52:44.859Z,20.90
2018-11-28T07:55:11.375Z,20.80
2018-11-28T07:57:37.819Z,20.80
2018-11-28T08:00:04.269Z,20.80
2018-11-28T08:02:30.757Z,20.80
2018-11-28T08:04:57.242Z,20.70
2018-11-28T08:07:23.710Z,20.70
2018-11-28T08:09:50.179Z,20.70
2018-11-28T08:12:16.641Z,20.60
2018-11-28T08:14:43.082Z,20.60
2018-11-28T08:17:09.492Z,20.60
2018-11-28T08:19:35.941Z,20.60
2018-11-28T08:22:02.374Z,20.60
2018-11-28T08:24:28.848Z,20.50
2018-11-28T08:26:55.279Z,20.50
2018-11-28T08:29:21.732Z,20.50
2018-11-28T08:31:48.140Z,20.50
2018-11-28T08:34:14.601Z,20.50
2018-11-28T08:36:41.058Z,20.40
2018-11-28T08:39:07.496Z,20.40
2018-11-28T08:41:33.919Z,20.40
2018-11-28T08:44:00.352Z,20.40
2018-11-28T08:46:27.005Z,20.40
2018-11-28T08:48:53.286Z,20.40
2018-11-28T08:51:19.834Z,20.40
2018-11-28T08:53:46.296Z,20.40
2018-11-28T08:56:12.741Z,20.30
2018-11-28T08:58:39.300Z,20.30
2018-11-28T09:01:05.752Z,20.30
2018-11-28T09:03:32.236Z,20.30
2018-11-28T09:05:58.679Z,20.30
2018-11-28T09:08:26.852Z,20.30
2018-11-28T09:10:53.455Z,20.30
2018-11-28T09:13:19.930Z,20.30
2018-11-28T09:15:46.323Z,20.30
2018-11-28T09:18:12.761Z,20.30
2018-11-28T09:20:39.294Z,20.30
2018-11-28T09:23:06.013Z,20.30
2018-11-28T09:25:32.857Z,20.30
2018-11-28T09:27:59.332Z,20.30
2018-11-28T09:30:25.762Z,20.30
2018-11-28T09:32:52.226Z,20.20
2018-11-28T09:35:18.668Z,20.30
2018-11-28T09:37:45.719Z,20.30
2018-11-28T09:40:11.623Z,20.30
2018-11-28T09:42:38.109Z,20.30
2018-11-28T09:45:04.541Z,20.30
2018-11-28T09:47:30.998Z,20.30
2018-11-28T09:49:57.484Z,20.40
2018-11-28T09:52:23.950Z,20.40
2018-11-28T09:54:50.399Z,20.40
2018-11-28T09:57:16.900Z,20.40
2018-11-28T09:59:43.370Z,20.40
2018-11-28T10:02:09.812Z,20.50
2018-11-28T10:04:36.236Z,20.50
2018-11-28T10:07:02.842Z,20.50
2018-11-28T10:09:29.316Z,20.50
2018-11-28T10:11:55.724Z,20.50
2018-11-28T10:14:22.154Z,20.40
2018-11-28T10:16:49.211Z,20.50
2018-11-28T10:19:15.101Z,20.40
2018-11-28T10:21:41.629Z,20.40
2018-11-28T10:24:08.071Z,20.40
2018-11-28T10:26:34.521Z,20.40
2018-11-28T10:29:00.980Z,20.40
2018-11-28T10:31:27.440Z,20.30
2018-11-28T10:33:53.868Z,20.30
2018-11-28T10:36:20.357Z,20.30
2018-11-28T10:38:46.825Z,20.30
2018-11-28T10:41:13.289Z,20.30
2018-11-28T10:43:39.733Z,20.30
2018-11-28T10:46:06.147Z,20.30
2018-11-28T10:48:32.617Z,20.30
2018-11-28T10:50:59.039Z,20.20
2018-11-28T10:53:25.491Z,20.20
2018-11-28T10:55:51.928Z,20.20
2018-11-28T10:58:18.375Z,20.20
2018-11-28T11:00:50.537Z,20.20
2018-11-28T11:03:22.687Z,20.20
2018-11-28T11:05:54.815Z,20.20
2018-11-28T11:08:25.800Z,20.20
2018-11-28T11:10:58.700Z,20.20
2018-11-28T11:13:30.947Z,20.20
2018-11-28T11:15:58.290Z,20.10
2018-11-28T11:18:24.771Z,20.10
2018-11-28T11:20:51.196Z,20.10
2018-11-28T11:23:17.676Z,20.10
2018-11-28T11:25:44.132Z,20.10
2018-11-28T11:28:10.596Z,20.10
2018-11-28T11:30:37.084Z,20.10
2018-11-28T11:33:03.542Z,20.10
2018-11-28T11:35:30.001Z,20.10
2018-11-28T11:37:56.464Z,20.10
2018-11-28T11:40:23.005Z,20.10
2018-11-28T11:42:49.564Z,20.10
2018-11-28T11:45:16.001Z,20.10
2018-11-28T11:47:42.525Z,20.10
2018-11-28T11:50:08.987Z,20.10
2018-11-28T11:52:35.474Z,20.10
2018-11-28T11:55:01.951Z,20.10
2018-11-28T11:57:28.420Z,20.20
2018-11-28T11:59:54.826Z,20.20
2018-11-28T12:02:21.300Z,20.20
2018-11-28T12:04:47.722Z,20.20
2018-11-28T12:07:14.220Z,20.20
2018-11-28T12:09:40.689Z,20.30
2018-11-28T12:12:07.130Z,20.30
2018-11-28T12:14:33.607Z,20.30
2018-11-28T12:17:00.170Z,20.30
2018-11-28T12:19:26.621Z,20.30
2018-11-28T12:21:53.071Z,20.30
2018-11-28T12:24:19.502Z,20.30
2018-11-28T12:26:45.943Z,20.20
2018-11-28T12:29:13.000Z,20.20
2018-11-28T12:31:39.522Z,20.30
2018-11-28T12:34:05.952Z,20.20
2018-11-28T12:36:32.395Z,20.20
2018-11-28T12:38:58.821Z,20.20
2018-11-28T12:41:25.268Z,20.20
2018-11-28T12:43:51.716Z,20.20
2018-11-28T12:46:18.157Z,20.20
2018-11-28T12:48:44.620Z,20.20
2018-11-28T12:51:11.192Z,20.10
2018-11-28T12:53:37.655Z,20.10
2018-11-28T12:56:04.095Z,20.10
2018-11-28T12:58:30.509Z,20.10
2018-11-28T13:00:57.015Z,20.10
2018-11-28T13:03:23.462Z,20.10
2018-11-28T13:05:49.929Z,20.00
2018-11-28T13:08:16.389Z,20.00
2018-11-28T13:10:42.875Z,20.00
2018-11-28T13:13:09.338Z,20.00
2018-11-28T13:15:35.759Z,20.00
2018-11-28T13:18:02.302Z,20.00
2018-11-28T13:20:28.739Z,19.90
2018-11-28T13:22:55.165Z,19.90
2018-11-28T13:25:21.607Z,20.00
2018-11-28T13:27:48.095Z,19.90
2018-11-28T13:30:14.503Z,19.90
2018-11-28T13:32:40.955Z,19.90
2018-11-28T13:35:07.407Z,19.90
2018-11-28T13:37:33.937Z,19.90
2018-11-28T13:40:00.400Z,19.90
2018-11-28T13:42:26.846Z,19.90
2018-11-28T13:44:53.326Z,19.90
2018-11-28T13:47:19.799Z,19.90
2018-11-28T13:49:46.219Z,19.90
2018-11-28T13:52:12.771Z,19.90
2018-11-28T13:55:36.855Z,19.90
2018-11-28T13:57:07.447Z,19.90
2018-11-28T13:59:32.957Z,19.80
2018-11-28T14:01:59.433Z,19.80
2018-11-28T14:04:25.861Z,19.80
2018-11-28T14:06:52.335Z,19.80
2018-11-28T14:09:18.765Z,19.80
2018-11-28T14:11:45.241Z,19.80
2018-11-28T14:14:11.675Z,19.90
2018-11-28T14:16:38.167Z,19.90
2018-11-28T14:19:04.598Z,19.90
2018-11-28T14:21:31.048Z,19.90
2018-11-28T14:23:57.495Z,19.90
2018-11-28T14:26:23.988Z,19.90
2018-11-28T14:28:50.417Z,20.00
2018-11-28T14:31:16.862Z,20.00
2018-11-28T14:33:44.483Z,20.00
2018-11-28T14:36:10.961Z,20.00
2018-11-28T14:38:37.371Z,20.00
2018-11-28T14:41:03.819Z,20.00
2018-11-28T14:43:30.251Z,20.00
2018-11-28T14:45:56.830Z,20.00
2018-11-28T14:48:23.304Z,20.00
2018-11-28T14:50:49.769Z,20.00
2018-11-28T14:53:16.170Z,20.00
2018-11-28T14:55:42.591Z,19.90
2018-11-28T14:58:09.068Z,19.90
2018-11-28T15:00:35.524Z,19.90
2018-11-28T15:03:01.956Z,19.90
2018-11-28T15:05:28.410Z,20.00
2018-11-28T15:07:54.846Z,20.00
2018-11-28T15:10:21.304Z,20.00
2018-11-28T15:12:47.775Z,20.00
2018-11-28T15:15:14.250Z,20.00
2018-11-28T15:17:40.665Z,20.10
2018-11-28T15:20:07.107Z,20.10
2018-11-28T15:22:33.521Z,20.20
2018-11-28T15:24:59.956Z,20.20
2018-11-28T15:27:26.458Z,20.20
2018-11-28T15:29:52.969Z,20.20
2018-11-28T15:32:19.440Z,20.20
2018-11-28T15:34:45.961Z,20.20
2018-11-28T15:37:12.407Z,20.20
2018-11-28T15:39:38.839Z,20.30
2018-11-28T15:42:05.286Z,20.30
2018-11-28T15:44:31.711Z,20.40
2018-11-28T15:46:58.141Z,20.40
2018-11-28T15:49:24.587Z,20.40
2018-11-28T15:51:51.033Z,20.50
2018-11-28T15:54:17.476Z,20.50
2018-11-28T15:56:43.941Z,20.50
2018-11-28T15:59:10.391Z,20.60
2018-11-28T16:01:36.849Z,20.60
2018-11-28T16:04:03.319Z,20.70
2018-11-28T16:06:29.788Z,20.70
2018-11-28T16:08:56.305Z,20.70
2018-11-28T16:11:22.769Z,20.70
2018-11-28T16:13:49.268Z,20.80
2018-11-28T16:16:15.707Z,20.80
2018-11-28T16:18:42.182Z,20.80
2018-11-28T16:21:08.628Z,20.90
2018-11-28T16:23:35.057Z,20.90
2018-11-28T16:26:01.501Z,20.90
2018-11-28T16:28:28.579Z,21.00
2018-11-28T16:30:55.048Z,21.00
2018-11-28T16:33:21.546Z,21.00
2018-11-28T16:35:48.000Z,21.10
2018-11-28T16:38:14.484Z,21.10
2018-11-28T16:40:40.952Z,21.10
2018-11-28T16:43:07.493Z,21.10
2018-11-28T16:45:34.287Z,21.10
2018-11-28T16:48:00.751Z,21.20
2018-11-28T16:50:27.271Z,21.20
2018-11-28T16:52:53.744Z,21.20
2018-11-28T16:55:20.214Z,21.20
2018-11-28T16:57:46.812Z,21.10
2018-11-28T17:00:13.304Z,21.20
2018-11-28T17:02:39.997Z,21.20
2018-11-28T17:05:06.444Z,21.20
2018-11-28T17:07:32.892Z,21.20
2018-11-28T17:09:59.370Z,21.20
2018-11-28T17:12:25.950Z,21.30
2018-11-28T17:14:52.374Z,21.30
2018-11-28T17:17:18.929Z,21.40
2018-11-28T17:19:45.397Z,21.40
2018-11-28T17:22:11.890Z,21.50
2018-11-28T17:24:38.328Z,21.50
2018-11-28T17:27:04.783Z,21.50
2018-11-28T17:29:31.237Z,21.60
2018-11-28T17:31:57.726Z,21.60
2018-11-28T17:34:24.226Z,21.60
2018-11-28T17:36:50.839Z,21.70
2018-11-28T17:39:17.312Z,21.70
2018-11-28T17:41:43.749Z,21.70
2018-11-28T17:44:10.245Z,21.70
2018-11-28T17:46:36.680Z,21.70
2018-11-28T17:49:03.117Z,21.70
2018-11-28T17:51:29.575Z,21.70
2018-11-28T17:53:56.025Z,21.70
2018-11-28T17:56:22.473Z,21.80
2018-11-28T17:58:48.928Z,21.80
2018-11-28T18:01:15.397Z,21.80
2018-11-28T18:03:41.830Z,21.90
2018-11-28T18:06:08.299Z,21.90
2018-11-28T18:08:34.737Z,21.90
2018-11-28T18:11:01.212Z,21.90
2018-11-28T18:13:27.629Z,21.90
2018-11-28T18:15:54.081Z,21.90
2018-11-28T18:18:20.510Z,21.90
2018-11-28T18:20:50.118Z,22.00
2018-11-28T18:23:13.391Z,22.00
2018-11-28T18:25:40.630Z,22.00
2018-11-28T18:28:07.117Z,22.00
2018-11-28T18:30:33.535Z,22.00
2018-11-28T18:33:00.116Z,22.00
2018-11-28T18:35:26.612Z,22.00
2018-11-28T18:37:53.930Z,22.00
2018-11-28T18:40:20.344Z,22.10
2018-11-28T18:42:46.839Z,22.10
2018-11-28T18:45:13.310Z,22.10
2018-11-28T18:47:39.762Z,22.30
2018-11-28T18:50:06.207Z,22.20
2018-11-28T18:52:32.702Z,22.20
2018-11-28T18:54:59.176Z,22.20
2018-11-28T18:57:25.624Z,22.20
2018-11-28T18:59:52.063Z,22.20
2018-11-28T19:02:18.544Z,22.20
2018-11-28T19:04:45.046Z,22.30
2018-11-28T19:07:11.529Z,22.30
2018-11-28T19:09:43.799Z,22.20
2018-11-28T19:12:10.271Z,22.30
2018-11-28T19:14:36.781Z,22.30
2018-11-28T19:17:03.215Z,22.30
2018-11-28T19:19:29.717Z,22.30
2018-11-28T19:21:56.165Z,22.30
2018-11-28T19:24:22.738Z,22.30
2018-11-28T19:26:49.223Z,22.30
2018-11-28T19:29:15.802Z,22.30
2018-11-28T19:31:42.264Z,22.30
2018-11-28T19:34:08.778Z,22.30
2018-11-28T19:36:35.246Z,22.40
2018-11-28T19:39:01.707Z,22.40
2018-11-28T19:41:28.140Z,22.40
2018-11-28T19:43:54.588Z,22.40
2018-11-28T19:46:21.018Z,22.40
2018-11-28T19:48:47.967Z,22.40
2018-11-28T19:51:14.453Z,22.40
2018-11-28T19:53:40.909Z,22.40
2018-11-28T19:56:07.398Z,22.40
2018-11-28T19:58:33.815Z,22.40
2018-11-28T20:01:00.346Z,22.50
2018-11-28T20:03:26.798Z,22.40
2018-11-28T20:05:53.310Z,22.40
2018-11-28T20:08:19.757Z,22.50
2018-11-28T20:10:46.229Z,22.40
2018-11-28T20:13:12.708Z,22.50
2018-11-28T20:15:39.829Z,22.50
2018-11-28T20:18:06.299Z,22.40
2018-11-28T20:20:32.775Z,22.50
2018-11-28T20:22:59.269Z,22.50
2018-11-28T20:25:25.784Z,22.50
2018-11-28T20:27:52.348Z,22.50
2018-11-28T20:30:18.944Z,22.50
2018-11-28T20:32:46.105Z,22.50
2018-11-28T20:35:12.966Z,22.50
2018-11-28T20:37:39.629Z,22.50
2018-11-28T20:40:06.250Z,22.50
2018-11-28T20:42:32.743Z,22.50
2018-11-28T20:44:59.211Z,22.50
2018-11-28T20:47:25.709Z,22.50
2018-11-28T20:49:52.253Z,22.60
2018-11-28T20:52:18.716Z,22.50
2018-11-28T20:54:45.240Z,22.60
2018-11-28T20:57:17.145Z,22.50
2018-11-28T20:59:38.635Z,22.60
2018-11-28T21:02:04.917Z,22.50
2018-11-28T21:04:31.504Z,22.60
2018-11-28T21:06:58.055Z,22.60
2018-11-28T21:09:24.784Z,22.60
2018-11-28T21:11:51.294Z,22.50
2018-11-28T21:14:17.800Z,22.50
2018-11-28T21:16:44.269Z,22.40
2018-11-28T21:19:11.233Z,22.30
2018-11-28T21:21:38.277Z,22.30
2018-11-28T21:24:05.036Z,22.20
2018-11-28T21:26:31.556Z,22.20
2018-11-28T21:28:58.004Z,22.10
2018-11-28T21:31:24.977Z,22.10
2018-11-28T21:33:51.720Z,22.00
2018-11-28T21:36:18.371Z,22.00
2018-11-28T21:38:44.874Z,22.00
2018-11-28T21:41:11.370Z,22.00
2018-11-28T21:43:37.892Z,21.90
2018-11-28T21:46:04.414Z,21.90
2018-11-28T21:48:30.867Z,21.90
2018-11-28T21:50:57.385Z,21.80
2018-11-28T21:53:23.892Z,21.80
2018-11-28T21:55:50.412Z,21.80
2018-11-28T21:58:16.982Z,21.80
2018-11-28T22:00:43.628Z,21.70
2018-11-28T22:03:10.237Z,21.70
2018-11-28T22:05:37.029Z,21.70
2018-11-28T22:08:03.521Z,21.70
2018-11-28T22:10:30.083Z,21.70
2018-11-28T22:12:56.533Z,21.60
2018-11-28T22:15:22.988Z,21.60
2018-11-28T22:17:49.469Z,21.60
2018-11-28T22:20:16.011Z,21.50
2018-11-28T22:22:42.471Z,21.50
2018-11-28T22:25:08.961Z,21.50
2018-11-28T22:27:35.419Z,21.40
2018-11-28T22:30:01.899Z,21.40
2018-11-28T22:32:28.385Z,21.40
2018-11-28T22:34:54.837Z,21.40
2018-11-28T22:37:21.351Z,21.30
2018-11-28T22:39:47.837Z,21.40
2018-11-28T22:42:14.259Z,21.40
2018-11-28T22:44:40.782Z,21.40
2018-11-28T22:47:07.207Z,21.30
2018-11-28T22:49:33.640Z,21.40
2018-11-28T22:52:00.082Z,21.40
2018-11-28T22:54:26.544Z,21.40
2018-11-28T22:56:53.515Z,21.30
2018-11-28T22:59:19.516Z,21.30
2018-11-28T23:01:45.957Z,21.30
2018-11-28T23:04:12.441Z,21.30
2018-11-28T23:06:38.885Z,21.30
2018-11-28T23:09:05.354Z,21.20
2018-11-28T23:11:31.802Z,21.20
2018-11-28T23:13:58.259Z,21.20
2018-11-28T23:16:24.677Z,21.20
2018-11-28T23:18:51.104Z,21.20
2018-11-28T23:21:17.540Z,21.20
2018-11-28T23:23:44.000Z,21.10
2018-11-28T23:26:10.430Z,21.20
2018-11-28T23:28:36.909Z,21.20
2018-11-28T23:31:03.343Z,21.20
2018-11-28T23:33:29.771Z,21.20
2018-11-28T23:35:56.255Z,21.10
2018-11-28T23:38:22.732Z,21.10
2018-11-28T23:40:49.163Z,21.10
2018-11-28T23:43:15.578Z,21.10
2018-11-28T23:45:42.120Z,21.10
2018-11-28T23:48:08.599Z,21.10
2018-11-28T23:50:35.066Z,21.10
2018-11-28T23:53:01.524Z,21.10
2018-11-28T23:55:28.364Z,21.00
2018-11-28T23:57:54.825Z,21.00
